Time;durP1;ratioP1;P1;durP2;ratioP2;P2;SDS_P1;SDS_P2;PMS_P1;PMS_P2;Temp;Humidity;BMP_temperature;BMP_pressure;BME280_temperature;BME280_humidity;BME280_pressure;Samples;Min_cycle;Max_cycle;Signal;HPM_P1;HPM_P2
2021/04/11 00:01:14;;;;;;;4.67;4.30;;;11.10;98.50;;;;;;4965585;28;20229;-83
2021/04/11 00:03:40;;;;;;;4.20;3.80;;;11.10;97.60;;;;;;4967948;28;20185;-83
2021/04/11 00:06:05;;;;;;;4.50;4.10;;;11.20;97.50;;;;;;4952722;28;21053;-83
2021/04/11 00:08:31;;;;;;;3.80;3.47;;;11.20;96.80;;;;;;4966152;28;20194;-83
2021/04/11 00:10:59;;;;;;;3.20;2.90;;;11.20;96.60;;;;;;4966432;28;20292;-83
2021/04/11 00:13:44;;;;;;;4.07;3.43;;;11.10;96.40;;;;;;4962458;28;20202;-83
2021/04/11 00:16:10;;;;;;;3.80;3.50;;;11.10;96.30;;;;;;4972665;28;20453;-83
2021/04/11 00:18:36;;;;;;;3.73;3.30;;;11.20;96.30;;;;;;4950516;28;20993;-83
2021/04/11 00:21:05;;;;;;;3.40;3.10;;;11.20;96.30;;;;;;4953256;28;20477;-83
2021/04/11 00:23:32;;;;;;;3.37;3.07;;;11.10;96.00;;;;;;4966095;28;20448;-83
2021/04/11 00:25:57;;;;;;;4.07;3.73;;;11.20;95.90;;;;;;4950386;28;20446;-83
2021/04/11 00:28:23;;;;;;;3.80;3.50;;;11.20;95.80;;;;;;4963043;28;20440;-83
2021/04/11 00:30:49;;;;;;;4.87;2.90;;;11.10;95.80;;;;;;4956028;28;20190;-83
2021/04/11 00:33:33;;;;;;;4.20;3.27;;;11.10;96.00;;;;;;4963505;28;20542;-83
2021/04/11 00:36:03;;;;;;;3.57;3.13;;;11.10;95.80;;;;;;4948821;28;20452;-83
2021/04/11 00:38:30;;;;;;;4.20;2.83;;;11.10;95.80;;;;;;4969374;28;20547;-83
2021/04/11 00:41:00;;;;;;;3.47;3.20;;;11.10;95.80;;;;;;4968854;28;20495;-83
2021/04/11 00:43:27;;;;;;;3.90;3.00;;;11.00;95.90;;;;;;4966924;28;20502;-83
2021/04/11 00:46:31;;;;;;;3.30;3.03;;;11.00;95.90;;;;;;4972530;28;20445;-83
2021/04/11 00:48:57;;;;;;;3.57;3.27;;;11.00;96.10;;;;;;4951502;28;23647;-84
2021/04/11 00:51:25;;;;;;;3.13;2.90;;;10.80;96.30;;;;;;4963451;28;20449;-84
2021/04/11 00:54:03;;;;;;;3.33;3.03;;;10.80;96.20;;;;;;4955658;28;20471;-84
2021/04/11 00:56:31;;;;;;;2.90;2.70;;;10.80;96.70;;;;;;4947654;28;20538;-84
2021/04/11 00:58:57;;;;;;;3.00;2.70;;;10.70;96.70;;;;;;4965146;28;20448;-83
2021/04/11 01:01:23;;;;;;;2.70;2.50;;;10.70;96.60;;;;;;4966378;28;21179;-84
2021/04/11 01:03:51;;;;;;;3.03;2.77;;;10.70;96.70;;;;;;4967517;28;20481;-83
2021/04/11 01:06:21;;;;;;;2.83;2.63;;;10.70;96.80;;;;;;4950028;28;20730;-84
2021/04/11 01:08:50;;;;;;;3.83;2.80;;;10.70;97.80;;;;;;4965332;28;20797;-84
2021/04/11 01:11:29;;;;;;;3.23;2.93;;;10.70;97.70;;;;;;4965675;28;20449;-83
2021/04/11 01:14:02;;;;;;;3.20;2.80;;;10.70;98.00;;;;;;4965112;28;20525;-83
2021/04/11 01:16:29;;;;;;;3.00;2.70;;;10.70;98.50;;;;;;4949649;28;20483;-83
2021/04/11 01:18:55;;;;;;;4.03;2.70;;;10.70;98.70;;;;;;4969701;28;20452;-83
2021/04/11 01:21:28;;;;;;;3.40;3.13;;;10.60;99.50;;;;;;4949445;28;20480;-83
2021/04/11 01:24:14;;;;;;;4.47;2.97;;;10.50;99.90;;;;;;4962922;28;20471;-83
2021/04/11 01:26:41;;;;;;;5.23;3.20;;;10.40;99.90;;;;;;4966938;28;20462;-83
2021/04/11 01:29:09;;;;;;;3.37;2.63;;;10.40;99.90;;;;;;4960896;28;20452;-83
2021/04/11 01:31:35;;;;;;;3.97;2.60;;;10.30;99.90;;;;;;4968843;28;21147;-83
2021/04/11 01:34:02;;;;;;;3.57;3.00;;;10.10;99.90;;;;;;4966767;28;20444;-83
2021/04/11 01:36:30;;;;;;;2.90;2.70;;;10.00;99.90;;;;;;4945291;28;20208;-83
2021/04/11 01:39:01;;;;;;;2.80;2.60;;;10.00;99.90;;;;;;4960545;28;20828;-83
2021/04/11 01:41:42;;;;;;;3.17;2.57;;;10.00;99.90;;;;;;4965250;28;20892;-83
2021/04/11 01:44:11;;;;;;;4.13;2.67;;;10.10;99.90;;;;;;4959761;28;20460;-84
2021/04/11 01:46:38;;;;;;;2.50;2.30;;;10.10;99.90;;;;;;4963593;28;20449;-83
2021/04/11 01:49:04;;;;;;;3.57;2.50;;;10.10;99.90;;;;;;4948877;28;20903;-83
2021/04/11 01:51:43;;;;;;;6.20;2.57;;;10.00;99.90;;;;;;4951375;28;20494;-83
2021/04/11 01:54:16;;;;;;;3.07;2.87;;;10.10;99.90;;;;;;4966209;28;20452;-83
2021/04/11 01:56:44;;;;;;;2.07;1.97;;;10.10;99.90;;;;;;4951252;28;20868;-83
2021/04/11 01:59:24;;;;;;;4.23;2.00;;;10.10;99.90;;;;;;4965675;28;20949;-83
2021/04/11 02:01:50;;;;;;;2.50;2.30;;;10.10;99.90;;;;;;4966080;28;20498;-82
2021/04/11 02:04:16;;;;;;;2.30;2.20;;;10.00;99.90;;;;;;4963163;28;21141;-82
2021/04/11 02:06:55;;;;;;;2.90;2.30;;;9.90;99.90;;;;;;4961313;28;20461;-83
2021/04/11 02:09:31;;;;;;;2.83;2.40;;;9.90;99.90;;;;;;4950856;28;20441;-83
2021/04/11 02:11:58;;;;;;;2.57;2.30;;;10.00;99.90;;;;;;4940914;28;20451;-83
2021/04/11 02:14:24;;;;;;;4.03;2.53;;;10.00;99.90;;;;;;4947094;28;20459;-83
2021/04/11 02:16:50;;;;;;;3.40;3.10;;;10.10;99.90;;;;;;4971981;28;20513;-83
2021/04/11 02:19:19;;;;;;;3.47;3.10;;;10.30;99.90;;;;;;4971386;28;20455;-83
2021/04/11 02:21:54;;;;;;;3.20;2.87;;;10.50;99.30;;;;;;4973348;28;21292;-83
2021/04/11 02:24:19;;;;;;;2.73;2.53;;;10.60;98.80;;;;;;4971229;28;20471;-83
2021/04/11 02:26:45;;;;;;;3.77;2.90;;;10.60;98.50;;;;;;4973179;28;20456;-83
2021/04/11 02:29:18;;;;;;;3.27;2.80;;;10.60;98.70;;;;;;4952409;28;20555;-83
2021/04/11 02:31:44;;;;;;;3.27;2.97;;;10.50;98.90;;;;;;4956238;28;20480;-83
2021/04/11 02:34:14;;;;;;;3.00;2.77;;;10.60;98.50;;;;;;4953966;28;20918;-83
2021/04/11 02:36:46;;;;;;;3.33;3.03;;;10.70;98.40;;;;;;4953437;28;20456;-83
2021/04/11 02:39:19;;;;;;;4.67;2.93;;;10.70;98.70;;;;;;4954282;28;20502;-84
2021/04/11 02:41:45;;;;;;;3.40;3.10;;;10.70;99.90;;;;;;4961143;28;20818;-84
2021/04/11 02:44:12;;;;;;;3.57;3.23;;;10.70;99.90;;;;;;4966597;28;20455;-84
2021/04/11 02:46:40;;;;;;;3.40;2.87;;;10.60;99.90;;;;;;4946184;28;20543;-82
2021/04/11 02:49:10;;;;;;;2.80;2.60;;;10.60;99.90;;;;;;4965099;28;20448;-82
2021/04/11 02:51:37;;;;;;;3.90;2.97;;;10.60;99.90;;;;;;4957886;28;20469;-82
2021/04/11 02:54:05;;;;;;;3.10;2.90;;;10.70;99.30;;;;;;4964674;28;20475;-83
2021/04/11 02:56:31;;;;;;;3.20;2.90;;;10.70;99.20;;;;;;4968618;28;20459;-83
2021/04/11 02:58:57;;;;;;;2.67;2.47;;;10.60;99.90;;;;;;4949356;28;20452;-82
2021/04/11 03:01:38;;;;;;;3.20;2.63;;;10.60;99.90;;;;;;4966524;28;21105;-82
2021/04/11 03:04:04;;;;;;;3.80;2.77;;;10.50;99.90;;;;;;4954234;28;20329;-82
2021/04/11 03:06:38;;;;;;;3.57;2.90;;;10.50;99.90;;;;;;4953888;28;20449;-81
2021/04/11 03:09:09;;;;;;;3.20;2.90;;;10.50;99.90;;;;;;4970552;28;20470;-82
2021/04/11 03:11:49;;;;;;;2.93;2.70;;;10.40;99.90;;;;;;4971115;28;21144;-82
2021/04/11 03:14:15;;;;;;;2.90;2.70;;;10.30;99.90;;;;;;4967525;28;20474;-83
2021/04/11 03:16:43;;;;;;;3.43;3.13;;;10.30;99.90;;;;;;4968615;28;20443;-83
2021/04/11 03:19:09;;;;;;;2.90;2.70;;;10.30;99.90;;;;;;4964920;28;20946;-83
2021/04/11 03:21:35;;;;;;;3.10;2.80;;;10.20;99.90;;;;;;4953541;28;20476;-82
2021/04/11 03:24:04;;;;;;;2.57;2.37;;;10.10;99.90;;;;;;4951255;28;20516;-83
2021/04/11 03:26:42;;;;;;;3.20;2.60;;;10.10;99.90;;;;;;4951887;28;20190;-83
2021/04/11 03:29:15;;;;;;;3.03;2.80;;;10.10;99.90;;;;;;4970603;28;20462;-83
2021/04/11 03:32:14;;;;;;;3.50;3.00;;;10.10;99.90;;;;;;4954062;28;20455;-83
2021/04/11 03:34:42;;;;;;;2.80;2.60;;;10.20;99.90;;;;;;4948048;28;20472;-83
2021/04/11 03:37:11;;;;;;;3.10;2.77;;;10.30;99.90;;;;;;4956028;28;20441;-83
2021/04/11 03:39:39;;;;;;;3.10;2.80;;;10.20;99.90;;;;;;4950706;28;20698;-83
2021/04/11 03:42:12;;;;;;;3.00;2.80;;;10.20;99.90;;;;;;4969180;28;20491;-83
2021/04/11 03:44:39;;;;;;;2.77;2.57;;;10.10;99.90;;;;;;4957914;28;22985;-83
2021/04/11 03:47:31;;;;;;;2.80;2.60;;;10.20;99.90;;;;;;4968740;28;22147;-83
2021/04/11 03:50:33;;;;;;;2.60;2.40;;;10.20;99.90;;;;;;4962573;28;21290;-83
2021/04/11 03:53:15;;;;;;;1.97;1.87;;;10.30;99.90;;;;;;4952340;28;20564;-83
2021/04/11 03:55:44;;;;;;;3.37;1.93;;;10.60;99.90;;;;;;4953618;28;20468;-82
2021/04/11 03:58:21;;;;;;;3.00;2.23;;;10.60;99.90;;;;;;4967177;28;20847;-81
2021/04/11 04:00:51;;;;;;;2.07;1.90;;;10.70;98.70;;;;;;4967580;28;21951;-82
2021/04/11 04:03:22;;;;;;;2.50;2.30;;;10.80;99.70;;;;;;4966880;28;20445;-81
2021/04/11 04:05:49;;;;;;;2.93;2.73;;;10.80;99.90;;;;;;4952070;28;20458;-81
2021/04/11 04:08:15;;;;;;;2.87;2.67;;;10.70;99.90;;;;;;4978551;28;20448;-81
2021/04/11 04:10:48;;;;;;;2.67;2.57;;;10.60;99.90;;;;;;4951420;28;20799;-81
2021/04/11 04:13:36;;;;;;;3.07;2.87;;;10.40;99.90;;;;;;4964805;28;20190;-81
2021/04/11 04:16:35;;;;;;;3.20;3.00;;;10.30;99.90;;;;;;4952637;28;20539;-81
2021/04/11 04:19:03;;;;;;;2.67;2.50;;;10.30;99.90;;;;;;4952402;28;20451;-81
2021/04/11 04:21:35;;;;;;;3.17;2.83;;;10.30;99.90;;;;;;4969263;28;20480;-81
2021/04/11 04:24:31;;;;;;;3.10;2.90;;;10.30;99.90;;;;;;4969136;28;20468;-81
2021/04/11 04:27:14;;;;;;;3.13;2.87;;;10.30;99.90;;;;;;4965439;28;20539;-81
2021/04/11 04:30:00;;;;;;;3.33;3.03;;;10.20;99.90;;;;;;4952550;28;20449;-81
2021/04/11 04:32:42;;;;;;;4.90;3.03;;;10.20;99.90;;;;;;4948283;28;20584;-81
2021/04/11 04:35:26;;;;;;;2.73;2.53;;;10.10;99.90;;;;;;4950847;28;20469;-83
2021/04/11 04:37:58;;;;;;;2.93;2.73;;;10.10;99.90;;;;;;4952840;28;20528;-84
2021/04/11 04:40:52;;;;;;;2.50;2.30;;;10.00;99.90;;;;;;4949831;28;20483;-83
2021/04/11 04:43:36;;;;;;;5.00;2.60;;;10.00;99.90;;;;;;4951199;28;20476;-84
2021/04/11 04:46:06;;;;;;;3.13;2.93;;;10.10;99.90;;;;;;4948873;28;20499;-84
2021/04/11 04:48:55;;;;;;;2.90;2.70;;;10.10;99.90;;;;;;4947775;28;20523;-84
2021/04/11 04:51:32;;;;;;;3.27;2.73;;;10.10;99.90;;;;;;4957715;28;21298;-83
2021/04/11 04:54:39;;;;;;;3.40;3.07;;;10.20;99.90;;;;;;4964532;28;20626;-84
2021/04/11 04:57:26;;;;;;;3.90;2.50;;;10.10;99.90;;;;;;4927950;28;20488;-84
2021/04/11 05:00:00;;;;;;;2.80;2.60;;;10.00;99.90;;;;;;4947861;28;20452;-84
2021/04/11 05:02:34;;;;;;;2.60;2.40;;;9.90;99.90;;;;;;4961259;28;20560;-84
2021/04/11 05:05:05;;;;;;;2.53;2.33;;;9.90;99.90;;;;;;4950536;28;20464;-84
2021/04/11 05:07:36;;;;;;;3.23;2.90;;;9.90;99.90;;;;;;4965417;28;20437;-83
2021/04/11 05:10:13;;;;;;;2.53;2.33;;;10.00;99.90;;;;;;4962376;28;20480;-84
2021/04/11 05:12:47;;;;;;;3.93;3.27;;;10.00;99.90;;;;;;4958396;28;20820;-84
2021/04/11 05:15:28;;;;;;;3.00;2.80;;;10.10;99.90;;;;;;4950117;28;20529;-84
2021/04/11 05:18:01;;;;;;;2.70;2.50;;;10.20;99.90;;;;;;4959170;28;21170;-84
2021/04/11 05:20:34;;;;;;;3.50;2.87;;;10.30;99.90;;;;;;4947537;28;20917;-84
2021/04/11 05:23:13;;;;;;;3.23;2.63;;;10.30;99.90;;;;;;4938400;28;20448;-84
2021/04/11 05:25:52;;;;;;;2.73;2.53;;;10.30;99.90;;;;;;4951290;28;20446;-84
2021/04/11 05:28:34;;;;;;;2.90;2.70;;;10.30;99.90;;;;;;4936792;28;20476;-84
2021/04/11 05:31:20;;;;;;;2.80;2.60;;;10.30;99.90;;;;;;4965285;28;20966;-85
2021/04/11 05:33:48;;;;;;;3.00;2.70;;;10.40;99.90;;;;;;4951494;28;20448;-84
2021/04/11 05:36:35;;;;;;;3.00;2.80;;;10.40;99.90;;;;;;4957950;28;20476;-84
2021/04/11 05:39:49;;;;;;;4.57;2.90;;;10.40;99.90;;;;;;4949797;28;20689;-83
2021/04/11 05:42:30;;;;;;;3.90;2.97;;;10.40;99.90;;;;;;4950560;28;20459;-83
2021/04/11 05:44:58;;;;;;;4.00;3.60;;;10.40;99.90;;;;;;4959570;28;20889;-83
2021/04/11 05:47:33;;;;;;;3.50;3.20;;;10.50;99.90;;;;;;4943223;28;21005;-82
2021/04/11 05:50:26;;;;;;;3.17;2.97;;;10.60;99.90;;;;;;4979407;28;20598;-83
2021/04/11 05:52:59;;;;;;;3.50;3.20;;;10.70;99.90;;;;;;4952780;28;20551;-83
2021/04/11 05:55:29;;;;;;;3.47;3.17;;;10.80;99.90;;;;;;4948147;28;20483;-83
2021/04/11 05:58:00;;;;;;;3.40;3.13;;;10.80;99.90;;;;;;4950155;28;20523;-83
2021/04/11 06:00:35;;;;;;;3.43;3.13;;;10.90;99.90;;;;;;4948225;28;20571;-83
2021/04/11 06:03:06;;;;;;;3.13;2.93;;;10.90;99.90;;;;;;4953891;28;22177;-83
2021/04/11 06:05:51;;;;;;;3.80;3.50;;;11.00;99.90;;;;;;4956033;28;20449;-83
2021/04/11 06:08:33;;;;;;;4.03;3.60;;;11.00;99.90;;;;;;4953207;28;21033;-83
2021/04/11 06:11:23;;;;;;;4.63;4.20;;;11.20;99.90;;;;;;4950508;28;20440;-84
2021/04/11 06:14:16;;;;;;;4.53;3.93;;;11.30;99.90;;;;;;4967473;28;20448;-84
2021/04/11 06:16:42;;;;;;;3.67;3.37;;;11.50;99.90;;;;;;4966510;28;20448;-85
2021/04/11 06:19:09;;;;;;;3.43;3.13;;;11.60;99.90;;;;;;4943683;28;20488;-85
2021/04/11 06:21:53;;;;;;;4.47;3.20;;;11.80;99.90;;;;;;4947042;28;20488;-85
2021/04/11 06:24:33;;;;;;;3.63;3.33;;;12.00;99.90;;;;;;4938077;28;20874;-84
2021/04/11 06:27:33;;;;;;;4.00;3.60;;;12.20;99.90;;;;;;4947461;28;20591;-85
2021/04/11 06:30:16;;;;;;;4.03;3.63;;;12.40;99.90;;;;;;4969539;28;20448;-85
2021/04/11 06:33:09;;;;;;;7.63;3.80;;;12.50;99.80;;;;;;4968147;28;20484;-85
2021/04/11 06:35:47;;;;;;;4.57;3.27;;;12.60;99.90;;;;;;4951560;28;20528;-84
2021/04/11 06:38:18;;;;;;;3.40;3.10;;;12.60;99.90;;;;;;4952404;28;20453;-83
2021/04/11 06:41:18;;;;;;;3.57;3.27;;;12.70;99.90;;;;;;4965106;28;20897;-83
2021/04/11 06:44:02;;;;;;;4.20;3.50;;;12.70;99.90;;;;;;4968470;28;20834;-84
2021/04/11 06:46:49;;;;;;;4.43;4.03;;;12.80;99.70;;;;;;4965584;28;21061;-84
2021/04/11 06:49:24;;;;;;;4.07;3.77;;;13.00;99.20;;;;;;4950641;28;20444;-83
2021/04/11 06:52:27;;;;;;;4.30;3.90;;;13.10;99.00;;;;;;4948544;28;20987;-85
2021/04/11 06:55:02;;;;;;;5.10;4.00;;;13.10;99.10;;;;;;4970435;28;20471;-85
2021/04/11 06:57:44;;;;;;;5.10;4.30;;;13.20;98.60;;;;;;4962339;28;20525;-85
2021/04/11 07:00:35;;;;;;;7.20;3.57;;;13.20;98.60;;;;;;4966473;28;20956;-84
2021/04/11 07:03:37;;;;;;;4.30;3.90;;;13.30;98.20;;;;;;4915135;28;20861;-85
2021/04/11 07:06:12;;;;;;;5.77;4.67;;;13.50;98.20;;;;;;4959203;28;20677;-86
2021/04/11 07:08:58;;;;;;;5.60;4.10;;;13.50;97.50;;;;;;4948720;28;20813;-81
2021/04/11 07:11:45;;;;;;;5.60;4.17;;;13.70;97.50;;;;;;4961981;28;20575;-82
2021/04/11 07:14:42;;;;;;;4.10;3.73;;;13.90;96.50;;;;;;4957398;28;20445;-85
2021/04/11 07:18:05;;;;;;;3.70;3.40;;;14.20;96.20;;;;;;4946763;28;20456;-85
2021/04/11 07:20:55;;;;;;;2.60;2.40;;;14.50;95.30;;;;;;4933737;28;20511;-83
2021/04/11 07:23:48;;;;;;;4.10;2.30;;;14.70;92.20;;;;;;4962832;28;20947;-86
2021/04/11 07:26:45;;;;;;;3.33;2.57;;;14.40;91.30;;;;;;4951433;28;20453;-88
2021/04/11 07:29:57;;;;;;;2.50;2.30;;;14.20;91.20;;;;;;4878174;28;20600;-87
2021/04/11 07:32:45;;;;;;;2.80;2.60;;;14.10;91.60;;;;;;4947209;28;21032;-85
2021/04/11 07:35:36;;;;;;;3.20;2.90;;;14.20;91.70;;;;;;4943817;28;20452;-85
2021/04/11 07:38:49;;;;;;;5.10;3.73;;;14.20;91.80;;;;;;4942273;28;20484;-85
2021/04/11 07:41:30;;;;;;;3.10;2.90;;;14.20;91.80;;;;;;4946182;28;20603;-85
2021/04/11 07:44:05;;;;;;;2.93;2.73;;;14.30;91.70;;;;;;4965963;28;20485;-84
2021/04/11 07:46:43;;;;;;;3.27;2.97;;;14.40;91.20;;;;;;4962248;28;20448;-85
2021/04/11 07:49:12;;;;;;;4.53;4.10;;;14.40;91.50;;;;;;4959940;28;20899;-85
2021/04/11 07:51:57;;;;;;;93.47;84.97;;;14.40;91.30;;;;;;4947154;28;20481;-86
2021/04/11 07:54:32;;;;;;;29.77;27.27;;;14.40;91.00;;;;;;4940666;28;20538;-87
2021/04/11 07:56:57;;;;;;;2.97;2.67;;;14.50;91.00;;;;;;4950084;28;20455;-83
2021/04/11 07:59:38;;;;;;;2.50;2.30;;;14.70;91.10;;;;;;4937395;28;20997;-83
2021/04/11 08:02:13;;;;;;;5.60;3.37;;;14.90;91.00;;;;;;4956809;28;20240;-83
2021/04/11 08:05:00;;;;;;;3.00;2.80;;;15.20;91.00;;;;;;4943660;28;20652;-82
2021/04/11 08:08:03;;;;;;;3.07;2.80;;;15.30;91.00;;;;;;4942959;28;20441;-82
2021/04/11 08:11:16;;;;;;;2.80;2.40;;;15.40;90.50;;;;;;4958821;28;20449;-83
2021/04/11 08:14:06;;;;;;;3.10;2.67;;;15.40;90.70;;;;;;4957046;28;20472;-83
2021/04/11 08:16:39;;;;;;;4.60;2.60;;;15.50;90.80;;;;;;4959483;28;20455;-83
2021/04/11 08:19:47;;;;;;;2.30;2.10;;;15.60;90.30;;;;;;4939518;28;20541;-83
2021/04/11 08:22:37;;;;;;;3.73;3.10;;;15.50;90.30;;;;;;4899387;29;20482;-82
2021/04/11 08:25:31;;;;;;;3.80;3.40;;;15.60;90.80;;;;;;4928142;28;20473;-82
2021/04/11 08:28:22;;;;;;;3.17;2.10;;;15.80;90.40;;;;;;4931277;28;20500;-86
2021/04/11 08:34:27;;;;;;;2.60;2.10;;;16.40;86.00;;;;;;4962575;28;20539;-84
2021/04/11 08:37:20;;;;;;;3.60;1.90;;;16.40;87.00;;;;;;4962415;28;21014;-84
2021/04/11 08:40:20;;;;;;;2.47;2.27;;;16.50;85.50;;;;;;4957275;28;20450;-82
2021/04/11 08:43:11;;;;;;;2.50;2.30;;;16.60;85.40;;;;;;4965757;28;20583;-83
2021/04/11 08:46:05;;;;;;;2.63;2.20;;;16.60;85.90;;;;;;4969043;28;20457;-84
2021/04/11 08:48:37;;;;;;;3.90;1.83;;;16.60;85.00;;;;;;4956802;28;20445;-83
2021/04/11 08:51:21;;;;;;;1.97;1.70;;;16.60;83.40;;;;;;4941272;28;20460;-83
2021/04/11 08:54:06;;;;;;;3.90;2.40;;;16.80;83.60;;;;;;4945863;28;20527;-84
2021/04/11 08:56:39;;;;;;;2.00;1.90;;;17.30;83.60;;;;;;4940987;28;20449;-84
2021/04/11 08:59:29;;;;;;;2.50;1.87;;;17.10;81.80;;;;;;4947424;28;23194;-84
2021/04/11 09:02:22;;;;;;;1.50;1.40;;;17.10;80.00;;;;;;4945382;28;20582;-85
2021/04/11 09:05:07;;;;;;;3.83;1.70;;;16.80;77.80;;;;;;4945786;28;20452;-84
2021/04/11 09:07:41;;;;;;;1.83;1.70;;;16.70;79.80;;;;;;4965628;28;21122;-85
2021/04/11 09:10:23;;;;;;;2.77;2.20;;;16.70;79.10;;;;;;4956841;28;20457;-85
2021/04/11 09:13:30;;;;;;;3.23;1.67;;;16.80;79.30;;;;;;4947870;28;20445;-85
2021/04/11 09:16:34;;;;;;;2.93;1.57;;;16.50;78.80;;;;;;4964205;28;21479;-83
2021/04/11 09:19:22;;;;;;;1.30;1.20;;;16.80;78.20;;;;;;4873010;29;21006;-84
2021/04/11 09:22:25;;;;;;;2.13;1.93;;;17.10;77.00;;;;;;4945659;28;20558;-85
2021/04/11 09:25:18;;;;;;;1.97;1.50;;;16.90;76.40;;;;;;4945805;28;20502;-85
2021/04/11 09:28:10;;;;;;;12.43;10.87;;;16.80;76.10;;;;;;4950106;28;21164;-85
2021/04/11 09:31:09;;;;;;;6.97;6.20;;;17.10;76.40;;;;;;4960273;28;20531;-90
2021/04/11 09:34:09;;;;;;;4.70;4.30;;;17.30;74.20;;;;;;4938352;28;20553;-90
2021/04/11 09:36:46;;;;;;;2.10;1.90;;;17.50;72.90;;;;;;4955845;28;20456;-90
2021/04/11 09:39:31;;;;;;;2.50;2.27;;;17.60;72.10;;;;;;4944967;28;20507;-91
2021/04/11 09:42:12;;;;;;;2.57;1.60;;;17.50;71.00;;;;;;4942516;28;20511;-91
2021/04/11 09:45:08;;;;;;;3.43;1.90;;;17.60;71.30;;;;;;4963076;28;20452;-92
2021/04/11 09:47:55;;;;;;;5.80;5.40;;;18.00;71.60;;;;;;4959002;28;20446;-90
2021/04/11 09:50:23;;;;;;;4.90;4.50;;;18.10;71.30;;;;;;4985981;28;20498;-91
2021/04/11 09:53:41;;;;;;;24.93;21.23;;;18.20;69.90;;;;;;4945855;28;20445;-91
2021/04/11 09:56:19;;;;;;;2.20;2.00;;;18.20;70.80;;;;;;4947877;28;20627;-90
2021/04/11 09:59:19;;;;;;;2.70;1.97;;;18.20;69.60;;;;;;4950826;28;20865;-90
2021/04/11 10:01:59;;;;;;;2.80;2.17;;;18.80;68.30;;;;;;4965364;28;20483;-90
2021/04/11 10:04:30;;;;;;;2.10;1.90;;;19.20;65.60;;;;;;4956639;28;20460;-91
2021/04/11 10:07:36;;;;;;;4.43;1.73;;;19.60;64.40;;;;;;4963078;28;20951;-91
2021/04/11 10:10:34;;;;;;;2.00;1.90;;;19.90;62.30;;;;;;4936342;28;20459;-90
2021/04/11 10:13:32;;;;;;;4.30;1.90;;;19.50;63.10;;;;;;4940139;28;20507;-91
2021/04/11 10:16:29;;;;;;;2.47;2.27;;;19.20;63.20;;;;;;4944540;28;20456;-91
2021/04/11 10:19:13;;;;;;;3.00;2.80;;;19.00;61.60;;;;;;4961874;28;20453;-90
2021/04/11 10:22:00;;;;;;;2.57;1.83;;;18.60;63.60;;;;;;4944997;28;20542;-91
2021/04/11 10:24:59;;;;;;;2.33;2.00;;;18.50;64.10;;;;;;4944785;28;21265;-90
2021/04/11 10:27:27;;;;;;;3.87;3.50;;;18.60;63.50;;;;;;4959507;28;20444;-89
2021/04/11 10:29:56;;;;;;;2.30;2.10;;;18.50;64.40;;;;;;4945994;28;20535;-89
2021/04/11 10:32:27;;;;;;;3.00;2.40;;;19.00;64.10;;;;;;4959310;28;20941;-90
2021/04/11 10:35:11;;;;;;;1.60;1.43;;;19.50;60.60;;;;;;4960925;28;20524;-90
2021/04/11 10:37:53;;;;;;;1.80;1.70;;;20.60;63.60;;;;;;4949747;28;20543;-90
2021/04/11 10:40:43;;;;;;;2.63;1.90;;;21.00;61.00;;;;;;4945122;28;20918;-90
2021/04/11 10:43:39;;;;;;;3.07;2.83;;;21.90;56.40;;;;;;4947589;28;20966;-90
2021/04/11 10:46:21;;;;;;;1.70;1.50;;;21.80;53.30;;;;;;4944163;28;20495;-90
2021/04/11 10:49:36;;;;;;;3.70;2.00;;;20.80;53.70;;;;;;4941182;28;20452;-90
2021/04/11 10:52:17;;;;;;;2.20;2.00;;;21.00;54.40;;;;;;4930063;28;20496;-90
2021/04/11 10:55:19;;;;;;;3.37;1.63;;;20.60;54.20;;;;;;4966256;28;20479;-88
2021/04/11 10:58:13;;;;;;;1.70;1.60;;;20.00;54.50;;;;;;4947906;28;20457;-88
2021/04/11 11:00:57;;;;;;;3.17;2.13;;;20.20;55.10;;;;;;4941829;28;20575;-90
2021/04/11 11:03:55;;;;;;;2.63;2.20;;;20.80;53.40;;;;;;4964930;28;20511;-89
2021/04/11 11:06:33;;;;;;;1.80;1.70;;;21.70;53.60;;;;;;4959628;28;20809;-87
2021/04/11 11:09:17;;;;;;;2.00;1.80;;;22.30;51.30;;;;;;4945842;28;20434;-88
2021/04/11 11:12:01;;;;;;;2.97;2.77;;;22.40;51.80;;;;;;4941631;28;21034;-88
2021/04/11 11:14:45;;;;;;;1.70;1.50;;;23.10;50.40;;;;;;4935556;28;20489;-87
2021/04/11 11:17:45;;;;;;;3.40;2.30;;;22.60;48.40;;;;;;4965115;28;20854;-87
2021/04/11 11:20:26;;;;;;;2.10;1.90;;;22.40;49.00;;;;;;4954355;28;20441;-87
2021/04/11 11:23:07;;;;;;;3.00;2.77;;;21.60;49.50;;;;;;4942795;28;20484;-87
2021/04/11 11:25:42;;;;;;;5.67;5.03;;;21.40;49.60;;;;;;4964948;28;20441;-88
2021/04/11 11:28:45;;;;;;;2.60;2.27;;;21.60;49.50;;;;;;4952129;28;20478;-91
2021/04/11 11:31:37;;;;;;;3.17;1.53;;;21.00;50.00;;;;;;4967538;28;20483;-91
2021/04/11 11:34:22;;;;;;;2.83;1.77;;;21.20;50.20;;;;;;4950975;28;20465;-89
2021/04/11 11:37:14;;;;;;;3.07;1.70;;;21.50;50.20;;;;;;4970119;28;20448;-89
2021/04/11 11:39:51;;;;;;;2.13;1.93;;;21.70;49.40;;;;;;4962773;28;20496;-89
2021/04/11 11:42:54;;;;;;;2.30;1.90;;;21.70;49.00;;;;;;4966921;28;22104;-90
2021/04/11 11:46:08;;;;;;;3.90;2.37;;;21.40;49.90;;;;;;4967564;28;20511;-95
2021/04/11 11:49:32;;;;;;;2.10;1.80;;;21.00;50.30;;;;;;4967409;28;21270;-93
2021/04/11 11:52:29;;;;;;;2.17;2.00;;;20.50;50.60;;;;;;4968195;28;20457;-91
2021/04/11 11:55:00;;;;;;;2.47;2.27;;;20.80;51.30;;;;;;4929487;28;20469;-90
2021/04/11 11:57:58;;;;;;;2.83;2.63;;;21.00;51.30;;;;;;4947970;28;20453;-89
2021/04/11 12:00:32;;;;;;;1.40;1.30;;;21.60;50.10;;;;;;4953107;28;20843;-89
2021/04/11 12:03:01;;;;;;;1.53;1.43;;;21.20;49.30;;;;;;4949330;28;20498;-89
2021/04/11 12:05:36;;;;;;;32.13;22.20;;;21.00;50.30;;;;;;4942966;28;20847;-89
2021/04/11 12:08:11;;;;;;;47.60;34.47;;;21.60;50.40;;;;;;4967963;28;20453;-91
2021/04/11 12:11:17;;;;;;;3.67;3.20;;;21.40;49.50;;;;;;4967248;28;20923;-90
2021/04/11 12:14:10;;;;;;;1.77;1.50;;;21.90;49.10;;;;;;4953414;28;20574;-90
2021/04/11 12:16:46;;;;;;;2.50;1.60;;;21.90;47.90;;;;;;4950821;28;20514;-91
2021/04/11 12:19:30;;;;;;;3.10;1.80;;;21.80;48.60;;;;;;4966227;28;20452;-93
2021/04/11 12:25:30;;;;;;;1.30;1.20;;;22.70;47.60;;;;;;4930635;28;20591;-88
2021/04/11 12:28:07;;;;;;;1.97;1.87;;;22.80;46.40;;;;;;4970067;28;20448;-88
2021/04/11 12:30:36;;;;;;;4.90;4.50;;;22.40;45.60;;;;;;4950274;28;20559;-88
2021/04/11 12:33:02;;;;;;;2.10;1.50;;;22.60;46.70;;;;;;4970559;28;20445;-88
2021/04/11 12:35:32;;;;;;;1.43;1.30;;;23.10;45.20;;;;;;4956235;28;20463;-88
2021/04/11 12:38:27;;;;;;;1.40;1.30;;;22.90;44.60;;;;;;4950366;28;20753;-89
2021/04/11 12:41:27;;;;;;;3.13;2.87;;;22.30;44.80;;;;;;4956014;28;20485;-93
2021/04/11 12:44:20;;;;;;;1.63;1.30;;;22.10;45.50;;;;;;4962399;28;20969;-92
2021/04/11 12:47:09;;;;;;;1.40;1.30;;;21.50;47.50;;;;;;4952154;28;20461;-89
2021/04/11 12:49:48;;;;;;;1.90;1.47;;;21.00;47.60;;;;;;4966784;28;20441;-94
2021/04/11 12:52:34;;;;;;;1.73;1.20;;;20.80;49.60;;;;;;4946232;28;20466;-90
2021/04/11 12:55:25;;;;;;;1.30;1.20;;;22.20;48.00;;;;;;4968888;28;20449;-91
2021/04/11 12:58:09;;;;;;;1.43;1.33;;;23.40;45.90;;;;;;4951367;28;20568;-91
2021/04/11 13:00:44;;;;;;;1.87;1.37;;;23.50;44.90;;;;;;4945577;28;20493;-87
2021/04/11 13:03:22;;;;;;;1.23;1.13;;;23.30;45.00;;;;;;4974823;28;20452;-93
2021/04/11 13:05:52;;;;;;;1.30;1.20;;;23.20;44.20;;;;;;4959752;28;20567;-93
2021/04/11 13:08:33;;;;;;;1.87;1.07;;;23.00;44.70;;;;;;4972001;28;20452;-93
2021/04/11 13:11:18;;;;;;;2.20;1.10;;;22.90;45.40;;;;;;4960107;28;20465;-93
2021/04/11 13:14:15;;;;;;;1.47;1.03;;;22.40;45.80;;;;;;4964219;28;20491;-93
2021/04/11 13:17:25;;;;;;;1.23;1.13;;;21.80;46.00;;;;;;4952445;28;20488;-92
2021/04/11 13:20:05;;;;;;;1.40;1.30;;;21.20;46.10;;;;;;4970151;28;20496;-93
2021/04/11 13:22:57;;;;;;;2.03;1.40;;;20.90;48.10;;;;;;4958858;28;20491;-93
2021/04/11 13:25:41;;;;;;;1.90;1.13;;;20.90;48.80;;;;;;4979803;28;20453;-95
2021/04/11 13:28:24;;;;;;;1.70;1.23;;;20.30;48.20;;;;;;4976422;28;20488;-90
2021/04/11 13:31:25;;;;;;;1.13;1.00;;;20.10;49.00;;;;;;4965943;28;20492;-92
2021/04/11 13:34:03;;;;;;;1.47;1.23;;;19.90;49.30;;;;;;4962482;28;20784;-93
2021/04/11 13:36:48;;;;;;;1.50;1.40;;;20.40;50.00;;;;;;4973523;28;20539;-90
2021/04/11 13:39:29;;;;;;;1.80;1.00;;;20.90;49.80;;;;;;4951485;28;20813;-92
2021/04/11 13:42:08;;;;;;;1.60;1.13;;;20.90;48.40;;;;;;4949325;28;20476;-90
2021/04/11 13:45:14;;;;;;;1.20;1.10;;;20.70;49.00;;;;;;4964973;28;20499;-91
2021/04/11 13:47:52;;;;;;;1.33;1.23;;;20.50;49.20;;;;;;4950555;28;20448;-88
2021/04/11 13:50:27;;;;;;;1.60;1.27;;;20.80;48.70;;;;;;4966741;28;20441;-89
2021/04/11 13:53:07;;;;;;;1.33;1.23;;;21.00;47.90;;;;;;4969181;28;21022;-89
2021/04/11 13:55:41;;;;;;;1.50;1.10;;;21.40;47.30;;;;;;4954042;28;20495;-89
2021/04/11 13:58:38;;;;;;;1.43;1.30;;;21.50;46.60;;;;;;4953857;28;20453;-89
2021/04/11 14:01:29;;;;;;;1.40;1.30;;;21.50;46.60;;;;;;4981372;28;20476;-89
2021/04/11 14:04:04;;;;;;;1.50;1.40;;;21.20;47.30;;;;;;4904819;28;20445;-90